Polarstern — DBLK — position and weather

sailwx.info

Track history (hours):
 
Tides and Currents Weather Stations Pressure Air Temp Water Temp Dewpoint Dewpoint Depression Visibility Wind Speed Wind Dir Waves Ship Positions

Oceanographic research ship Polarstern (Germany)

Detailed information on ship capabilities available from University of Delaware's Ocean Information Center and ARCUS's ALIAS (Arctic Logistics Information and Support) project.

Last reported at 2015-Jan-26 23:00 UTC. Time now 2015-Jan-27 01:10 UTC.
Position S 51°18' E 012°00'.

Length 117.9 m; beam 25 m; draft 10.7 m.

MMSI: 211202460.

Wind from 260 at 29 knots

Barometer 996.5 mb
Air temperature 2.5 ° C
Dewpoint -2.1 ° C
Water temperature 3.0 ° C

Date/timePositionNaut miles runAvg speedWind from/ knotsBaromVisibWave heightAir tempDewpointWater temp
2015-Jan-26 23:00S 51°18' E 012°00'7 7.1 260 / 29996.5 2.5-2.1 3.0
2015-Jan-26 22:00S 51°24' E 011°54'1212.0 250 / 31995.4 2.5-2.1 2.6
2015-Jan-26 21:00S 51°36' E 011°54'7 7.1 250 / 31994.4 2.4-0.7 2.7
2015-Jan-26 20:00S 51°42' E 011°48'1312.6 250 / 31992.9 1.9-0.0 1.7
2015-Jan-26 19:00S 51°54' E 011°42'1212.0 240 / 31991.3 1.7 0.1 1.7
2015-Jan-26 18:00S 52°06' E 011°42'7 7.0 240 / 33989.4 5.4 3.5 1.8-0.1 1.4
2015-Jan-26 17:00S 52°12' E 011°36'1312.5 240 / 31987.8 1.7-1.1 1.3
2015-Jan-26 16:00S 52°24' E 011°30'6 6.0 240 / 33985.8 1.5-0.6 1.2
2015-Jan-26 15:00S 52°30' E 011°30'1312.5 240 / 35984.2 2.2 3.5 1.3-0.2 1.1
2015-Jan-26 14:00S 52°42' E 011°24'1312.5 230 / 33982.8 0.7 0.7 1.1
2015-Jan-26 13:00S 52°54' E 011°18'12 6.0 230 / 35980.8 1.1 0.5 1.2
2015-Jan-26 11:00S 53°06' E 011°18'7 7.0 220 / 31976.1 1.0 0.5 1.1
2015-Jan-26 10:00S 53°12' E 011°24'9 9.4 210 / 29974.8 1.1 0.5 1.2
2015-Jan-26 09:00S 53°18' E 011°36'12 6.2 200 / 21972.9 5.4 1.5 0.9 0.6 1.1
2015-Jan-26 07:00S 53°24' E 011°54'7 7.0 200 / 10970.2 0.7 0.7 1.1
2015-Jan-26 06:00S 53°30' E 012°00'9 9.3 330 / 8969.6 0.5 0.5 0.6 0.4 1.0
2015-Jan-26 05:00S 53°36' E 012°12'7 7.0 350 / 14968.9 0.7 0.2 0.8
2015-Jan-26 04:00S 53°42' E 012°18'4 3.6 350 / 16969.0 0.8 0.2 1.0
2015-Jan-26 03:00S 53°42' E 012°24'9 9.3 360 / 16968.8 1.0 0.5 1.1
2015-Jan-26 02:00S 53°48' E 012°36'7 7.0 350 / 16969.2 1.3 0.5 1.0
2015-Jan-26 01:00S 53°54' E 012°42'9 9.3 350 / 19969.3 1.5 0.6 1.0
2015-Jan-26 00:00S 54°00' E 012°54'7 7.1 340 / 17969.5 1.5 1.0 1.0
2015-Jan-25 23:00S 54°00' E 013°06'7 7.0 360 / 17969.7 1.5 1.1 0.8
2015-Jan-25 22:00S 54°06' E 013°12'9 9.2 020 / 17970.0 1.3 1.3 0.8
2015-Jan-25 21:00S 54°12' E 013°24'7 6.9 060 / 23970.3 0.3 0.3 0.7
2015-Jan-25 20:00S 54°18' E 013°30'7 7.0 070 / 27971.4 0.4 0.3 0.8
2015-Jan-25 19:00S 54°18' E 013°42'9 9.2 070 / 25973.0 0.4 0.1 0.8
2015-Jan-25 18:00S 54°24' E 013°54'9 9.2 070 / 27974.8 2.2 2.0 1.1 0.7 0.7
2015-Jan-25 17:00S 54°30' E 014°06'3 3.5 060 / 25976.6 1.1 0.2 1.1
2015-Jan-25 16:00S 54°30' E 014°12'16 7.9 040 / 21978.0 1.1 0.3 1.2
2015-Jan-25 14:00S 54°42' E 014°30'7 6.9 020 / 17980.3 0.6 0.3 1.0
2015-Jan-25 13:00S 54°48' E 014°36'7 6.9 360 / 19981.1 0.6 0.6 1.0
2015-Jan-25 12:00S 54°54' E 014°42'7 6.9 010 / 25981.5 2.2 1.5 0.4 0.4 1.1
2015-Jan-25 11:00S 54°54' E 014°54'6 6.0 020 / 21982.2 0.1 0.1 1.1
2015-Jan-25 10:00S 55°00' E 014°54'7 6.9 010 / 21982.4 0.5 0.4 1.1
2015-Jan-25 09:00S 55°00' E 014°42'15 7.5 350 / 23982.2 2.2 1.5 0.6 0.5 1.0
2015-Jan-25 07:00S 55°06' E 014°18'9 9.1 350 / 21981.8 0.7 0.7 1.0
2015-Jan-25 06:00S 55°12' E 014°06'7 6.8 340 / 21981.5 1.1 1.0 0.7 0.7 1.1
2015-Jan-25 05:00S 55°12' E 013°54'1010.3 350 / 19981.2 0.7 0.7 1.1
2015-Jan-25 04:00S 55°12' E 013°36'15 7.5 350 / 19980.7 0.6 0.6 1.1
2015-Jan-25 02:00S 55°18' E 013°12'7 6.8 010 / 19980.4 0.3 0.3 1.1
2015-Jan-25 01:00S 55°18' E 013°00'9 9.1 010 / 19980.6 0.2 0.2 1.1
2015-Jan-25 00:00S 55°24' E 012°48'7 6.8 010 / 19980.6 0.4 0.4 1.2
2015-Jan-24 23:00S 55°24' E 012°36'15 7.4 010 / 17980.4 0.3 0.3 1.2
2015-Jan-24 21:00S 55°30' E 012°12'7 6.8 360 / 19980.3 0.3 0.3 1.2
2015-Jan-24 20:00S 55°30' E 012°00'1010.2 360 / 19980.1 0.4 0.4 1.2
2015-Jan-24 19:00S 55°30' E 011°42'9 9.1 010 / 21979.7 0.3 0.3 1.3
2015-Jan-24 18:00S 55°36' E 011°30'7 6.8 360 / 21979.6 1.1 1.5 0.6 0.4 1.3
2015-Jan-24 17:00S 55°36' E 011°18'15 7.4 360 / 19979.7 0.7 0.6 1.3
2015-Jan-24 15:00S 55°42' E 010°54'7 6.8 360 / 21980.2 1.1 1.0 0.5 0.5 1.4
2015-Jan-24 14:00S 55°42' E 010°42'7 6.8 010 / 21980.7 0.3 0.3 1.3
2015-Jan-24 13:00S 55°42' E 010°30'15 7.4 010 / 19981.3 0.3 0.3 1.2
2015-Jan-24 11:00S 55°48' E 010°06'1010.1 040 / 19982.4 0.3 0.3 1.3
2015-Jan-24 10:00S 55°48' E 009°48'9 9.0 060 / 21983.6 -0.0-0.1 1.4
2015-Jan-24 09:00S 55°54' E 009°36'7 6.7 050 / 17984.4 1.1 0.5-0.3-0.5 1.3
2015-Jan-24 08:00S 55°54' E 009°24'7 6.7 030 / 16985.2 -0.1-0.5 1.4
2015-Jan-24 07:00S 55°54' E 009°12'9 9.0 030 / 16985.7 0.5-0.5 1.2
2015-Jan-24 06:00S 56°00' E 009°00'7 6.7 030 / 14986.110.8 0.5 0.3-0.4 1.2
2015-Jan-24 05:00S 56°00' E 008°48'7 6.7 030 / 12986.7 0.2-0.3 1.4
2015-Jan-24 04:00S 56°00' E 008°36'9 9.0 010 / 14986.4 0.2-0.4 1.0
2015-Jan-24 03:00S 56°06' E 008°24'7 6.7 040 / 10987.3 -0.3-0.7 1.0
2015-Jan-24 02:00S 56°06' E 008°12'7 6.7 020 / 10987.6 -0.5-2.1 1.0
2015-Jan-24 01:00S 56°06' E 008°00'9 9.0 020 / 8988.5 -0.3-3.3 1.1
2015-Jan-24 00:00S 56°12' E 007°48'7 6.7 010 / 8989.0 -0.1-3.1 0.8
2015-Jan-23 23:00S 56°12' E 007°36'7 6.7 360 / 8989.1 0.1-3.1 0.7
2015-Jan-23 22:00S 56°12' E 007°24'9 9.0 350 / 10989.6 0.1-2.9 0.9
2015-Jan-23 21:00S 56°18' E 007°12'1010.0 330 / 8989.7 0.2-2.8 0.9
2015-Jan-23 20:00S 56°18' E 006°54'9 9.0 320 / 10989.4 -0.2-1.7 0.8
2015-Jan-23 19:00S 56°24' E 006°42'7 6.6 290 / 4989.9 0.2-1.4 0.8
2015-Jan-23 18:00S 56°24' E 006°30'7 6.6 270 / 4989.410.8 0.3-2.1 0.7
2015-Jan-23 17:00S 56°24' E 006°18'9 8.9 260 / 8989.7 0.8-1.6 1.0
2015-Jan-23 16:00S 56°30' E 006°06'7 6.6 270 / 6989.7 0.8-1.2 0.7
2015-Jan-23 15:00S 56°30' E 005°54'9 8.9 260 / 8989.810.8 0.1-1.7 0.7
2015-Jan-23 14:00S 56°24' E 005°42'9 9.0 240 / 8990.1 0.1-1.9 0.6
2015-Jan-23 13:00S 56°18' E 005°30'9 9.0 250 / 6989.7 1.6-2.7 0.8
2015-Jan-23 12:00S 56°24' E 005°18'9 9.0 260 / 6989.510.8 0.1-2.3 0.7
2015-Jan-23 11:00S 56°18' E 005°06'9 9.0 260 / 4989.3 0.1-2.1 0.8
2015-Jan-23 10:00S 56°24' E 004°54'9 9.0 230 / 4989.4 -0.2-1.8 0.8
2015-Jan-23 09:00S 56°18' E 004°42'9 9.0 190 / 4989.210.8 -0.1-2.0 0.9
2015-Jan-23 08:00S 56°24' E 004°30'7 6.6 180 / 6989.2 -0.2-1.4 0.8
2015-Jan-23 07:00S 56°24' E 004°18'9 8.9 180 / 8988.7 -0.2-1.2 0.8
2015-Jan-23 06:00S 56°30' E 004°06'7 6.6 190 / 8988.1 2.2 -0.3-0.9 0.8
2015-Jan-23 05:00S 56°30' E 003°54'9 8.9 190 / 8987.2 -0.4-0.8 0.8
2015-Jan-23 04:00S 56°36' E 003°42'9 8.9 190 / 8987.2 -0.3-0.9 0.8
2015-Jan-23 03:00S 56°42' E 003°30'7 6.6 190 / 8986.4 -0.2-0.7 0.8
2015-Jan-23 02:00S 56°42' E 003°18'9 8.9 180 / 8985.8 -0.3-0.9 0.7
2015-Jan-23 01:00S 56°48' E 003°06'7 6.6 180 / 8986.3 -0.2-0.5 0.8
2015-Jan-23 00:00S 56°48' E 002°54'9 8.9 170 / 6985.6 -0.2-0.3 0.7
2015-Jan-22 23:00S 56°54' E 002°42'7 6.6 200 / 8985.6 -0.1-0.2 0.6
2015-Jan-22 22:00S 56°54' E 002°30'9 8.9 200 / 8985.4 -0.2-0.5 0.7
2015-Jan-22 21:00S 57°00' E 002°18'14 7.2 190 / 8984.6 -0.3-0.4 0.7
2015-Jan-22 19:00S 57°06' E 001°54'9 8.9 180 / 6983.9 -0.3-0.4 0.7
2015-Jan-22 18:00S 57°12' E 001°42'3 3.3 190 / 6983.9 1.1 -0.3-0.4 0.6
2015-Jan-22 17:00S 57°12' E 001°36'9 8.8 160 / 4983.4 -0.3-0.4 0.6
2015-Jan-22 16:00S 57°18' E 001°24'7 6.8 180 / 8983.1 -0.0-0.2 0.6
2015-Jan-22 15:00S 57°24' E 001°18'14 6.8 190 / 10982.6 1.1 0.5-0.0-0.4 0.6
2015-Jan-22 13:00S 57°36' E 001°06'7 6.8 200 / 10981.6 0.1-0.1 0.5
2015-Jan-22 12:00S 57°42' E 001°00'7 6.8 190 / 12982.1 1.1 0.5-0.0-0.2 0.6
2015-Jan-22 11:00S 57°48' E 000°54'18 9.0 190 / 12980.7 0.4-0.1 0.5
2015-Jan-22 09:00S 58°06' E 000°54'7 6.8 170 / 16978.5 2.2 1.0 0.1-0.3 0.5
2015-Jan-22 08:00S 58°12' E 000°48'1212.0 170 / 19977.6 0.1-0.3 0.6
2015-Jan-22 07:00S 58°24' E 000°48'1212.0 170 / 21975.7 0.1-0.6 0.6
2015-Jan-22 06:00S 58°36' E 000°48'6 6.0 160 / 23973.8 -0.0-0.4 0.5
2015-Jan-22 05:00S 58°42' E 000°48'3 3.1 160 / 25972.2 -0.2-0.6 0.6
2015-Jan-22 04:00S 58°42' E 000°42'7 6.8 150 / 29971.0 -0.2-0.7 0.7
2015-Jan-22 03:00S 58°48' E 000°36'6 6.0 150 / 29969.8 0.2-1.4 0.6
2015-Jan-22 02:00S 58°54' E 000°36'1212.4 150 / 29968.6 -0.0-1.0 0.7
2015-Jan-22 01:00S 59°06' E 000°30'1212.0 150 / 31967.8 -0.1-1.2 0.8
2015-Jan-22 00:00S 59°18' E 000°30'1212.4 130 / 31968.0 -0.2-1.2 0.8
2015-Jan-21 23:00S 59°30' E 000°24'1212.0 130 / 31968.3 -0.5-1.3 0.8
2015-Jan-21 22:00S 59°42' E 000°24'1212.4 110 / 29969.1 -0.7-1.4 0.6
2015-Jan-21 21:00S 59°54' E 000°18'2412.1 110 / 27970.4 -0.7-0.9 0.6
2015-Jan-21 19:00S 60°18' E 000°12'6 6.0 100 / 25971.6 -1.0-1.4 0.8
2015-Jan-21 18:00S 60°24' E 000°12'1212.4 090 / 23973.3 2.2 1.5-1.1-2.6 0.6
2015-Jan-21 17:00S 60°36' E 000°06'1212.0 070 / 21974.7 -0.5-2.9 0.4
2015-Jan-21 16:00S 60°48' E 000°06'1212.3 060 / 19976.7 -0.3-3.7 0.5
2015-Jan-21 15:00S 61°00' E 000°00'0 0.0 050 / 17977.6 5.4 0.5-0.2-3.2 0.6
2015-Jan-21 14:00S 61°00' E 000°00'0 0.0 040 / 14979.6 -0.3-3.9 0.5
2015-Jan-21 13:00S 61°00' E 000°00'0 0.0 010 / 14981.1 -0.3-4.3 0.4
2015-Jan-21 12:00S 61°00' E 000°00'0 0.0 350 / 14981.7 5.4 0.5-0.2-4.0 0.4
2015-Jan-21 11:00S 61°00' E 000°00'6 6.0 340 / 14982.2 -0.3-4.3 0.4
2015-Jan-21 10:00S 61°06' E 000°00'3010.0 330 / 16982.5 -0.3-4.1 0.5
2015-Jan-21 07:00S 61°36' E 000°00'6 6.0 300 / 23981.6 -0.4-3.4 0.3
2015-Jan-21 06:00S 61°42' E 000°00'1212.0 280 / 23981.0 5.4 2.0-0.6-3.1 0.4
2015-Jan-21 05:00S 61°54' E 000°00'6 6.0 300 / 25980.7 -0.8-3.4 0.5
2015-Jan-21 04:00S 62°00' E 000°00'6 6.0 290 / 29979.4 -0.5-3.7 0.3
2015-Jan-21 03:00S 62°06' E 000°00'1212.0 290 / 27978.7 -0.4-3.6 0.4
2015-Jan-21 02:00S 62°18' E 000°00'6 6.0 290 / 25977.8 -0.7-1.8 0.5
2015-Jan-21 01:00S 62°24' E 000°00'1212.0 290 / 25977.4 -0.5-2.0 0.4
2015-Jan-21 00:00S 62°36' E 000°00'6 6.0 290 / 25976.5 -0.0-3.0 0.5
2015-Jan-20 23:00S 62°42' E 000°00'1212.0 290 / 23975.2 -0.0-1.9 0.5
2015-Jan-20 22:00S 62°54' E 000°00'6 6.0 300 / 21974.3 -0.0-1.7 0.5
2015-Jan-20 21:00S 63°00' E 000°00'1212.0 300 / 21973.7 0.1-1.3 0.5
2015-Jan-20 20:00S 63°12' E 000°00'6 6.0 300 / 21972.3 -0.1-1.5 0.5
2015-Jan-20 19:00S 63°18' E 000°00'1212.0 300 / 19971.8 -0.3-1.6 0.7
2015-Jan-20 18:00S 63°30' E 000°00'6 6.0 290 / 16971.0 5.4 1.0 0.1-1.1 0.5
2015-Jan-20 17:00S 63°36' E 000°00'1212.0 310 / 16969.9 0.1-1.0 0.3
2015-Jan-20 16:00S 63°48' E 000°00'0 0.0 350 / 16969.6 -0.2-0.9 0.3
2015-Jan-20 15:00S 63°48' E 000°00'0 0.0 350 / 16969.6 2.2 1.0 0.1-1.1 0.2
2015-Jan-20 14:00S 63°48' E 000°00'6 6.0 360 / 16969.2 -0.1-1.7 0.3
2015-Jan-20 13:00S 63°54' E 000°00'0 0.0 360 / 16969.0 -0.0-1.8 0.3
2015-Jan-20 12:00S 63°54' E 000°00'0 0.0 360 / 16968.410.8 1.0-0.1-2.3 0.3
2015-Jan-20 11:00S 63°54' E 000°00'0 0.0 020 / 16968.7 -0.2-1.6 0.2
2015-Jan-20 10:00S 63°54' E 000°00'0 0.0 020 / 17968.9 -0.3-1.5 0.2
2015-Jan-20 09:00S 63°54' E 000°00'0 0.0 030 / 16968.7 5.4 1.5-0.2-1.9 0.3
2015-Jan-20 08:00S 63°54' E 000°00'0 0.0 020 / 17968.9 -0.2-2.3 0.2
2015-Jan-20 07:00S 63°54' E 000°00'0 0.0 020 / 17968.6 -0.1-2.7 0.2
2015-Jan-20 06:00S 63°54' E 000°00'6 6.0 020 / 19968.7 5.4 1.5-0.4-3.1 0.2
2015-Jan-20 05:00S 64°00' E 000°00'6 6.0 010 / 19968.4 -0.3-2.7 0.4
2015-Jan-20 04:00S 64°06' E 000°00'6 6.0 030 / 21968.9 0.3-2.8 0.5
2015-Jan-20 03:00S 64°12' E 000°00'6 6.0 030 / 23969.6 0.4-3.3 0.4
2015-Jan-20 02:00S 64°18' E 000°00'6 6.0 030 / 21970.0 0.3-2.6 0.2
2015-Jan-20 01:00S 64°24' E 000°00'6 6.0 030 / 23970.0 0.2-1.5 0.4
2015-Jan-20 00:00S 64°30' E 000°00'6 6.0 030 / 23970.7 0.2-1.5 0.1
2015-Jan-19 23:00S 64°36' E 000°00'6 6.0 030 / 23971.3 0.2-1.3 0.4
2015-Jan-19 22:00S 64°42' E 000°00'1212.0 030 / 25971.8 0.2-1.2 0.4
2015-Jan-19 21:00S 64°54' E 000°00'6 6.0 020 / 23972.1 0.4-1.6 0.6
2015-Jan-19 20:00S 65°00' E 000°00'6 6.0 020 / 23972.3 0.4-1.0 0.2
2015-Jan-19 19:00S 65°06' E 000°00'6 6.0 020 / 23972.2 0.5-1.0 0.6
2015-Jan-19 18:00S 65°12' E 000°00'6 6.0 020 / 23972.6 2.2 2.0 0.5-0.7 0.5
2015-Jan-19 17:00S 65°18' E 000°00'1212.0 010 / 23972.9 0.6-1.0 0.6
2015-Jan-19 16:00S 65°30' E 000°00'6 6.0 010 / 23973.4 0.7-0.9 0.4
2015-Jan-19 15:00S 65°36' E 000°00'6 6.0 010 / 25973.3 2.2 2.0 0.2-1.0 0.5
2015-Jan-19 14:00S 65°42' E 000°00'6 6.5 010 / 25973.8 0.7-1.1 0.4
2015-Jan-19 13:00S 65°48' E 000°06'0 0.0 010 / 23974.6 0.6-0.6 0.5
2015-Jan-19 12:00S 65°48' E 000°06'2 2.5 010 / 23974.3 2.2 2.0 0.6-0.9 0.3
2015-Jan-19 11:00S 65°48' E 000°00'6 6.0 020 / 25974.2 0.7-0.7 0.6
2015-Jan-19 10:00S 65°54' E 000°00'0 0.0 020 / 23973.9 0.7-0.6 0.3
2015-Jan-19 09:00S 65°54' E 000°00'6 6.0 010 / 23974.0 2.2 2.0 0.6-0.7 0.2
2015-Jan-19 08:00S 66°00' E 000°00'0 0.0 020 / 23973.6 0.2-0.1 0.1
2015-Jan-19 07:00S 66°00' E 000°00'0 0.0 020 / 23974.0 0.5-0.6 0.2
2015-Jan-19 06:00S 66°00' E 000°00'0 0.0 020 / 25973.4 2.2 2.0 0.5-0.6-0.1
2015-Jan-19 05:00S 66°00' E 000°00'6 6.0 020 / 23973.4 0.5-0.6-0.0
2015-Jan-19 04:00S 66°06' E 000°00'0 0.0 020 / 27972.6 0.4-0.0-0.0
2015-Jan-19 03:00S 66°06' E 000°00'6 6.0 020 / 27973.0 0.4-0.1-0.1
2015-Jan-19 02:00S 66°12' E 000°00'6 6.0 020 / 27973.2 0.2 0.2-0.2
2015-Jan-19 01:00S 66°18' E 000°00'12 6.0 020 / 27973.5 0.3-0.2-0.2
2015-Jan-18 23:00S 66°30' E 000°00'0 0.0 020 / 23973.1 0.2-0.1-0.1
2015-Jan-18 22:00S 66°30' E 000°00'6 6.0 010 / 21973.6 0.3-0.2 0.1
2015-Jan-18 21:00S 66°36' E 000°00'6 6.5 010 / 19972.5 0.3-0.4 0.1
2015-Jan-18 20:00S 66°42' E 000°06'6 6.5 360 / 17972.5 0.3-0.2 0.1
2015-Jan-18 19:00S 66°48' E 000°12'0 0.0 030 / 23971.4 0.1-0.2-0.0
2015-Jan-18 18:00S 66°48' E 000°12'6 6.4 040 / 31971.3 0.5 4.5-0.4-0.5-0.0
2015-Jan-18 17:00S 66°54' E 000°06'0 0.0 050 / 39971.9 -0.6-1.0-0.0
2015-Jan-18 16:00S 66°54' E 000°06'2 2.4 050 / 41972.2 -0.9-1.2-0.2
2015-Jan-18 15:00S 66°54' E 000°00'6 6.0 060 / 41973.6 0.5 5.0-1.1-1.6-0.6
2015-Jan-18 14:00S 67°00' E 000°00'8 7.6 060 / 39975.1 -1.1-2.0-0.5
2015-Jan-18 13:00S 67°06' W 000°12'5 4.7 060 / 43977.0 -1.1-1.8-0.3
2015-Jan-18 12:00S 67°06' W 000°24'8 7.6 060 / 39978.5 1.1 3.5-1.1-2.2-0.2
2015-Jan-18 11:00S 67°12' W 000°36'9 9.2 050 / 37980.2 -0.8-2.3-0.1
2015-Jan-18 10:00S 67°18' W 000°54'8 7.6 060 / 35982.0 -0.5-3.2-0.2
2015-Jan-18 09:00S 67°24' W 001°06'8 7.6 060 / 33983.110.8 1.5-0.5-3.9-0.1
2015-Jan-18 08:00S 67°30' W 001°18'9 9.1 050 / 27984.4 -0.8-4.9-0.5
2015-Jan-18 07:00S 67°36' W 001°36'8 7.5 040 / 25985.1 -0.9-5.5-0.8
2015-Jan-18 06:00S 67°42' W 001°48'0 0.0 060 / 17986.010.8 0.5-1.3-4.9-0.7
2015-Jan-18 05:00S 67°42' W 001°48'0 0.0 060 / 14986.5 -1.3-5.5-0.6
2015-Jan-18 04:00S 67°42' W 001°48'0 0.0 030 / 10987.3 -1.6-6.1-0.7
2015-Jan-18 03:00S 67°42' W 001°48'5 4.6 340 / 6987.5 -1.5-5.3-0.8
2015-Jan-18 02:00S 67°42' W 002°00'9 9.1 310 / 12987.6 -1.8-6.8-1.1
2015-Jan-18 01:00S 67°48' W 002°18'9 9.1 300 / 16987.1 -1.6-6.0-1.6
2015-Jan-18 00:00S 67°48' W 002°42'9 9.1 290 / 14986.7 -1.4-4.7-1.4
2015-Jan-17 23:00S 67°54' W 003°00'9 9.0 280 / 17986.3 -1.5-5.4-1.4
2015-Jan-17 22:00S 68°00' W 003°18'7 7.5 270 / 17985.5 -1.5-5.2-1.5
2015-Jan-17 21:00S 68°06' W 003°30'9 9.0 270 / 21985.010.8 1.5-1.5-4.6-1.4
2015-Jan-17 20:00S 68°12' W 003°48'0 0.0 270 / 21983.8 -1.7-4.5-1.4
2015-Jan-17 19:00S 68°12' W 003°48'0 0.0 270 / 21983.3 -1.7-4.5-1.4
2015-Jan-17 18:00S 68°12' W 003°48'2 2.2 270 / 23982.710.8 -1.8-4.7-1.4
2015-Jan-17 17:00S 68°12' W 003°42'0 0.0 260 / 25982.2 -1.8-5.1-1.5
2015-Jan-17 16:00S 68°12' W 003°42'9 9.0 260 / 27982.0 -1.7-5.4-1.5
2015-Jan-17 15:00S 68°18' W 004°00'2 2.2 260 / 27981.110.8 2.0-1.9-4.6-1.3
2015-Jan-17 14:00S 68°18' W 003°54'4 4.4 260 / 29980.4 -2.0-4.9-1.2
2015-Jan-17 13:00S 68°18' W 004°06'2 2.2 250 / 31980.6 -2.0-4.3-1.0
2015-Jan-17 12:00S 68°18' W 004°00'6 6.4 250 / 33979.9 5.4 2.0-2.1-4.5-1.0
2015-Jan-17 11:00S 68°12' W 003°54'7 7.5 250 / 29979.9 -1.7-3.7-1.1
2015-Jan-17 10:00S 68°18' W 004°06'6 6.4 250 / 21980.3 -1.9-4.7-1.2
2015-Jan-17 09:00S 68°24' W 004°00'4 2.2 240 / 23981.010.8 -2.3-5.3-1.4
2015-Jan-17 07:00S 68°24' W 004°12'7 6.6 250 / 21983.1 -2.9-5.8-1.4
2015-Jan-17 06:00S 68°24' W 004°30'7 7.4 240 / 19984.627.0 -1.0-5.2-1.4
2015-Jan-17 05:00S 68°30' W 004°42'6 6.4 230 / 19985.8 -3.4-5.2-1.3
2015-Jan-17 04:00S 68°36' W 004°48'9 8.9 220 / 17986.9 -3.3-5.4-1.4
2015-Jan-17 03:00S 68°42' W 005°06'7 7.4 220 / 19987.8 -3.8-6.0-1.3
2015-Jan-17 02:00S 68°48' W 005°18'9 8.8 220 / 14989.5 -4.2-5.2-1.6
2015-Jan-17 01:00S 68°54' W 005°36'6 6.4 220 / 12990.8 -4.7-6.2-1.4
2015-Jan-17 00:00S 69°00' W 005°42'6 6.5 220 / 10992.1 -4.4-6.3-1.7
2015-Jan-16 23:00S 69°00' W 006°00'   210 / 16993.1 -4.2-5.7-1.2
Track history (hours):
 
Tides and Currents Weather Stations Pressure Air Temp Water Temp Dewpoint Dewpoint Depression Visibility Wind Speed Wind Dir Waves Ship Positions

Oceanographic research ship Polarstern (Germany)

Detailed information on ship capabilities available from University of Delaware's Ocean Information Center and ARCUS's ALIAS (Arctic Logistics Information and Support) project.

Last reported at 2015-Jan-26 23:00 UTC. Time now 2015-Jan-27 01:10 UTC.
Position S 51°18' E 012°00'.

Length 117.9 m; beam 25 m; draft 10.7 m.

MMSI: 211202460.

Wind from 260 at 29 knots

Barometer 996.5 mb
Air temperature 2.5 ° C
Dewpoint -2.1 ° C
Water temperature 3.0 ° C

Date/timePositionNaut miles runAvg speedWind from/ knotsBaromVisibWave heightAir tempDewpointWater temp
2015-Jan-26 23:00S 51°18' E 012°00'7 7.1 260 / 29996.5 2.5-2.1 3.0
2015-Jan-26 22:00S 51°24' E 011°54'1212.0 250 / 31995.4 2.5-2.1 2.6
2015-Jan-26 21:00S 51°36' E 011°54'7 7.1 250 / 31994.4 2.4-0.7 2.7
2015-Jan-26 20:00S 51°42' E 011°48'1312.6 250 / 31992.9 1.9-0.0 1.7
2015-Jan-26 19:00S 51°54' E 011°42'1212.0 240 / 31991.3 1.7 0.1 1.7
2015-Jan-26 18:00S 52°06' E 011°42'7 7.0 240 / 33989.4 5.4 3.5 1.8-0.1 1.4
2015-Jan-26 17:00S 52°12' E 011°36'1312.5 240 / 31987.8 1.7-1.1 1.3
2015-Jan-26 16:00S 52°24' E 011°30'6 6.0 240 / 33985.8 1.5-0.6 1.2
2015-Jan-26 15:00S 52°30' E 011°30'1312.5 240 / 35984.2 2.2 3.5 1.3-0.2 1.1
2015-Jan-26 14:00S 52°42' E 011°24'1312.5 230 / 33982.8 0.7 0.7 1.1
2015-Jan-26 13:00S 52°54' E 011°18'12 6.0 230 / 35980.8 1.1 0.5 1.2
2015-Jan-26 11:00S 53°06' E 011°18'7 7.0 220 / 31976.1 1.0 0.5 1.1
2015-Jan-26 10:00S 53°12' E 011°24'9 9.4 210 / 29974.8 1.1 0.5 1.2
2015-Jan-26 09:00S 53°18' E 011°36'12 6.2 200 / 21972.9 5.4 1.5 0.9 0.6 1.1
2015-Jan-26 07:00S 53°24' E 011°54'7 7.0 200 / 10970.2 0.7 0.7 1.1
2015-Jan-26 06:00S 53°30' E 012°00'9 9.3 330 / 8969.6 0.5 0.5 0.6 0.4 1.0
2015-Jan-26 05:00S 53°36' E 012°12'7 7.0 350 / 14968.9 0.7 0.2 0.8
2015-Jan-26 04:00S 53°42' E 012°18'4 3.6 350 / 16969.0 0.8 0.2 1.0
2015-Jan-26 03:00S 53°42' E 012°24'9 9.3 360 / 16968.8 1.0 0.5 1.1
2015-Jan-26 02:00S 53°48' E 012°36'7 7.0 350 / 16969.2 1.3 0.5 1.0
2015-Jan-26 01:00S 53°54' E 012°42'9 9.3 350 / 19969.3 1.5 0.6 1.0
2015-Jan-26 00:00S 54°00' E 012°54'7 7.1 340 / 17969.5 1.5 1.0 1.0
2015-Jan-25 23:00S 54°00' E 013°06'7 7.0 360 / 17969.7 1.5 1.1 0.8
2015-Jan-25 22:00S 54°06' E 013°12'9 9.2 020 / 17970.0 1.3 1.3 0.8
2015-Jan-25 21:00S 54°12' E 013°24'7 6.9 060 / 23970.3 0.3 0.3 0.7
2015-Jan-25 20:00S 54°18' E 013°30'7 7.0 070 / 27971.4 0.4 0.3 0.8
2015-Jan-25 19:00S 54°18' E 013°42'9 9.2 070 / 25973.0 0.4 0.1 0.8
2015-Jan-25 18:00S 54°24' E 013°54'9 9.2 070 / 27974.8 2.2 2.0 1.1 0.7 0.7
2015-Jan-25 17:00S 54°30' E 014°06'3 3.5 060 / 25976.6 1.1 0.2 1.1
2015-Jan-25 16:00S 54°30' E 014°12'16 7.9 040 / 21978.0 1.1 0.3 1.2
2015-Jan-25 14:00S 54°42' E 014°30'7 6.9 020 / 17980.3 0.6 0.3 1.0
2015-Jan-25 13:00S 54°48' E 014°36'7 6.9 360 / 19981.1 0.6 0.6 1.0
2015-Jan-25 12:00S 54°54' E 014°42'7 6.9 010 / 25981.5 2.2 1.5 0.4 0.4 1.1
2015-Jan-25 11:00S 54°54' E 014°54'6 6.0 020 / 21982.2 0.1 0.1 1.1
2015-Jan-25 10:00S 55°00' E 014°54'7 6.9 010 / 21982.4 0.5 0.4 1.1
2015-Jan-25 09:00S 55°00' E 014°42'15 7.5 350 / 23982.2 2.2 1.5 0.6 0.5 1.0
2015-Jan-25 07:00S 55°06' E 014°18'9 9.1 350 / 21981.8 0.7 0.7 1.0
2015-Jan-25 06:00S 55°12' E 014°06'7 6.8 340 / 21981.5 1.1 1.0 0.7 0.7 1.1
2015-Jan-25 05:00S 55°12' E 013°54'1010.3 350 / 19981.2 0.7 0.7 1.1
2015-Jan-25 04:00S 55°12' E 013°36'15 7.5 350 / 19980.7 0.6 0.6 1.1
2015-Jan-25 02:00S 55°18' E 013°12'7 6.8 010 / 19980.4 0.3 0.3 1.1
2015-Jan-25 01:00S 55°18' E 013°00'9 9.1 010 / 19980.6 0.2 0.2 1.1
2015-Jan-25 00:00S 55°24' E 012°48'7 6.8 010 / 19980.6 0.4 0.4 1.2
2015-Jan-24 23:00S 55°24' E 012°36'15 7.4 010 / 17980.4 0.3 0.3 1.2
2015-Jan-24 21:00S 55°30' E 012°12'7 6.8 360 / 19980.3 0.3 0.3 1.2
2015-Jan-24 20:00S 55°30' E 012°00'1010.2 360 / 19980.1 0.4 0.4 1.2
2015-Jan-24 19:00S 55°30' E 011°42'9 9.1 010 / 21979.7 0.3 0.3 1.3
2015-Jan-24 18:00S 55°36' E 011°30'7 6.8 360 / 21979.6 1.1 1.5 0.6 0.4 1.3
2015-Jan-24 17:00S 55°36' E 011°18'15 7.4 360 / 19979.7 0.7 0.6 1.3
2015-Jan-24 15:00S 55°42' E 010°54'7 6.8 360 / 21980.2 1.1 1.0 0.5 0.5 1.4
2015-Jan-24 14:00S 55°42' E 010°42'7 6.8 010 / 21980.7 0.3 0.3 1.3
2015-Jan-24 13:00S 55°42' E 010°30'15 7.4 010 / 19981.3 0.3 0.3 1.2
2015-Jan-24 11:00S 55°48' E 010°06'1010.1 040 / 19982.4 0.3 0.3 1.3
2015-Jan-24 10:00S 55°48' E 009°48'9 9.0 060 / 21983.6 -0.0-0.1 1.4
2015-Jan-24 09:00S 55°54' E 009°36'7 6.7 050 / 17984.4 1.1 0.5-0.3-0.5 1.3
2015-Jan-24 08:00S 55°54' E 009°24'7 6.7 030 / 16985.2 -0.1-0.5 1.4
2015-Jan-24 07:00S 55°54' E 009°12'9 9.0 030 / 16985.7 0.5-0.5 1.2
2015-Jan-24 06:00S 56°00' E 009°00'7 6.7 030 / 14986.110.8 0.5 0.3-0.4 1.2
2015-Jan-24 05:00S 56°00' E 008°48'7 6.7 030 / 12986.7 0.2-0.3 1.4
2015-Jan-24 04:00S 56°00' E 008°36'9 9.0 010 / 14986.4 0.2-0.4 1.0
2015-Jan-24 03:00S 56°06' E 008°24'7 6.7 040 / 10987.3 -0.3-0.7 1.0
2015-Jan-24 02:00S 56°06' E 008°12'7 6.7 020 / 10987.6 -0.5-2.1 1.0
2015-Jan-24 01:00S 56°06' E 008°00'9 9.0 020 / 8988.5 -0.3-3.3 1.1
2015-Jan-24 00:00S 56°12' E 007°48'7 6.7 010 / 8989.0 -0.1-3.1 0.8
2015-Jan-23 23:00S 56°12' E 007°36'7 6.7 360 / 8989.1 0.1-3.1 0.7
2015-Jan-23 22:00S 56°12' E 007°24'9 9.0 350 / 10989.6 0.1-2.9 0.9
2015-Jan-23 21:00S 56°18' E 007°12'1010.0 330 / 8989.7 0.2-2.8 0.9
2015-Jan-23 20:00S 56°18' E 006°54'9 9.0 320 / 10989.4 -0.2-1.7 0.8
2015-Jan-23 19:00S 56°24' E 006°42'7 6.6 290 / 4989.9 0.2-1.4 0.8
2015-Jan-23 18:00S 56°24' E 006°30'7 6.6 270 / 4989.410.8 0.3-2.1 0.7
2015-Jan-23 17:00S 56°24' E 006°18'9 8.9 260 / 8989.7 0.8-1.6 1.0
2015-Jan-23 16:00S 56°30' E 006°06'7 6.6 270 / 6989.7 0.8-1.2 0.7
2015-Jan-23 15:00S 56°30' E 005°54'9 8.9 260 / 8989.810.8 0.1-1.7 0.7
2015-Jan-23 14:00S 56°24' E 005°42'9 9.0 240 / 8990.1 0.1-1.9 0.6
2015-Jan-23 13:00S 56°18' E 005°30'9 9.0 250 / 6989.7 1.6-2.7 0.8
2015-Jan-23 12:00S 56°24' E 005°18'9 9.0 260 / 6989.510.8 0.1-2.3 0.7
2015-Jan-23 11:00S 56°18' E 005°06'9 9.0 260 / 4989.3 0.1-2.1 0.8
2015-Jan-23 10:00S 56°24' E 004°54'9 9.0 230 / 4989.4 -0.2-1.8 0.8
2015-Jan-23 09:00S 56°18' E 004°42'9 9.0 190 / 4989.210.8 -0.1-2.0 0.9
2015-Jan-23 08:00S 56°24' E 004°30'7 6.6 180 / 6989.2 -0.2-1.4 0.8
2015-Jan-23 07:00S 56°24' E 004°18'9 8.9 180 / 8988.7 -0.2-1.2 0.8
2015-Jan-23 06:00S 56°30' E 004°06'7 6.6 190 / 8988.1 2.2 -0.3-0.9 0.8
2015-Jan-23 05:00S 56°30' E 003°54'9 8.9 190 / 8987.2 -0.4-0.8 0.8
2015-Jan-23 04:00S 56°36' E 003°42'9 8.9 190 / 8987.2 -0.3-0.9 0.8
2015-Jan-23 03:00S 56°42' E 003°30'7 6.6 190 / 8986.4 -0.2-0.7 0.8
2015-Jan-23 02:00S 56°42' E 003°18'9 8.9 180 / 8985.8 -0.3-0.9 0.7
2015-Jan-23 01:00S 56°48' E 003°06'7 6.6 180 / 8986.3 -0.2-0.5 0.8
2015-Jan-23 00:00S 56°48' E 002°54'9 8.9 170 / 6985.6 -0.2-0.3 0.7
2015-Jan-22 23:00S 56°54' E 002°42'7 6.6 200 / 8985.6 -0.1-0.2 0.6
2015-Jan-22 22:00S 56°54' E 002°30'9 8.9 200 / 8985.4 -0.2-0.5 0.7
2015-Jan-22 21:00S 57°00' E 002°18'14 7.2 190 / 8984.6 -0.3-0.4 0.7
2015-Jan-22 19:00S 57°06' E 001°54'9 8.9 180 / 6983.9 -0.3-0.4 0.7
2015-Jan-22 18:00S 57°12' E 001°42'3 3.3 190 / 6983.9 1.1 -0.3-0.4 0.6
2015-Jan-22 17:00S 57°12' E 001°36'9 8.8 160 / 4983.4 -0.3-0.4 0.6
2015-Jan-22 16:00S 57°18' E 001°24'7 6.8 180 / 8983.1 -0.0-0.2 0.6
2015-Jan-22 15:00S 57°24' E 001°18'14 6.8 190 / 10982.6 1.1 0.5-0.0-0.4 0.6
2015-Jan-22 13:00S 57°36' E 001°06'7 6.8 200 / 10981.6 0.1-0.1 0.5
2015-Jan-22 12:00S 57°42' E 001°00'7 6.8 190 / 12982.1 1.1 0.5-0.0-0.2 0.6
2015-Jan-22 11:00S 57°48' E 000°54'18 9.0 190 / 12980.7 0.4-0.1 0.5
2015-Jan-22 09:00S 58°06' E 000°54'7 6.8 170 / 16978.5 2.2 1.0 0.1-0.3 0.5
2015-Jan-22 08:00S 58°12' E 000°48'1212.0 170 / 19977.6 0.1-0.3 0.6
2015-Jan-22 07:00S 58°24' E 000°48'1212.0 170 / 21975.7 0.1-0.6 0.6
2015-Jan-22 06:00S 58°36' E 000°48'6 6.0 160 / 23973.8 -0.0-0.4 0.5
2015-Jan-22 05:00S 58°42' E 000°48'3 3.1 160 / 25972.2 -0.2-0.6 0.6
2015-Jan-22 04:00S 58°42' E 000°42'7 6.8 150 / 29971.0 -0.2-0.7 0.7
2015-Jan-22 03:00S 58°48' E 000°36'6 6.0 150 / 29969.8 0.2-1.4 0.6
2015-Jan-22 02:00S 58°54' E 000°36'1212.4 150 / 29968.6 -0.0-1.0 0.7
2015-Jan-22 01:00S 59°06' E 000°30'1212.0 150 / 31967.8 -0.1-1.2 0.8
2015-Jan-22 00:00S 59°18' E 000°30'1212.4 130 / 31968.0 -0.2-1.2 0.8
2015-Jan-21 23:00S 59°30' E 000°24'1212.0 130 / 31968.3 -0.5-1.3 0.8
2015-Jan-21 22:00S 59°42' E 000°24'1212.4 110 / 29969.1 -0.7-1.4 0.6
2015-Jan-21 21:00S 59°54' E 000°18'2412.1 110 / 27970.4 -0.7-0.9 0.6
2015-Jan-21 19:00S 60°18' E 000°12'6 6.0 100 / 25971.6 -1.0-1.4 0.8
2015-Jan-21 18:00S 60°24' E 000°12'1212.4 090 / 23973.3 2.2 1.5-1.1-2.6 0.6
2015-Jan-21 17:00S 60°36' E 000°06'1212.0 070 / 21974.7 -0.5-2.9 0.4
2015-Jan-21 16:00S 60°48' E 000°06'1212.3 060 / 19976.7 -0.3-3.7 0.5
2015-Jan-21 15:00S 61°00' E 000°00'0 0.0 050 / 17977.6 5.4 0.5-0.2-3.2 0.6
2015-Jan-21 14:00S 61°00' E 000°00'0 0.0 040 / 14979.6 -0.3-3.9 0.5
2015-Jan-21 13:00S 61°00' E 000°00'0 0.0 010 / 14981.1 -0.3-4.3 0.4
2015-Jan-21 12:00S 61°00' E 000°00'0 0.0 350 / 14981.7 5.4 0.5-0.2-4.0 0.4
2015-Jan-21 11:00S 61°00' E 000°00'6 6.0 340 / 14982.2 -0.3-4.3 0.4
2015-Jan-21 10:00S 61°06' E 000°00'3010.0 330 / 16982.5 -0.3-4.1 0.5
2015-Jan-21 07:00S 61°36' E 000°00'6 6.0 300 / 23981.6 -0.4-3.4 0.3
2015-Jan-21 06:00S 61°42' E 000°00'1212.0 280 / 23981.0 5.4 2.0-0.6-3.1 0.4
2015-Jan-21 05:00S 61°54' E 000°00'6 6.0 300 / 25980.7 -0.8-3.4 0.5
2015-Jan-21 04:00S 62°00' E 000°00'6 6.0 290 / 29979.4 -0.5-3.7 0.3
2015-Jan-21 03:00S 62°06' E 000°00'1212.0 290 / 27978.7 -0.4-3.6 0.4
2015-Jan-21 02:00S 62°18' E 000°00'6 6.0 290 / 25977.8 -0.7-1.8 0.5
2015-Jan-21 01:00S 62°24' E 000°00'1212.0 290 / 25977.4 -0.5-2.0 0.4
2015-Jan-21 00:00S 62°36' E 000°00'6 6.0 290 / 25976.5 -0.0-3.0 0.5
2015-Jan-20 23:00S 62°42' E 000°00'1212.0 290 / 23975.2 -0.0-1.9 0.5
2015-Jan-20 22:00S 62°54' E 000°00'6 6.0 300 / 21974.3 -0.0-1.7 0.5
2015-Jan-20 21:00S 63°00' E 000°00'1212.0 300 / 21973.7 0.1-1.3 0.5
2015-Jan-20 20:00S 63°12' E 000°00'6 6.0 300 / 21972.3 -0.1-1.5 0.5
2015-Jan-20 19:00S 63°18' E 000°00'1212.0 300 / 19971.8 -0.3-1.6 0.7
2015-Jan-20 18:00S 63°30' E 000°00'6 6.0 290 / 16971.0 5.4 1.0 0.1-1.1 0.5
2015-Jan-20 17:00S 63°36' E 000°00'1212.0 310 / 16969.9 0.1-1.0 0.3
2015-Jan-20 16:00S 63°48' E 000°00'0 0.0 350 / 16969.6 -0.2-0.9 0.3
2015-Jan-20 15:00S 63°48' E 000°00'0 0.0 350 / 16969.6 2.2 1.0 0.1-1.1 0.2
2015-Jan-20 14:00S 63°48' E 000°00'6 6.0 360 / 16969.2 -0.1-1.7 0.3
2015-Jan-20 13:00S 63°54' E 000°00'0 0.0 360 / 16969.0 -0.0-1.8 0.3
2015-Jan-20 12:00S 63°54' E 000°00'0 0.0 360 / 16968.410.8 1.0-0.1-2.3 0.3
2015-Jan-20 11:00S 63°54' E 000°00'0 0.0 020 / 16968.7 -0.2-1.6 0.2
2015-Jan-20 10:00S 63°54' E 000°00'0 0.0 020 / 17968.9 -0.3-1.5 0.2
2015-Jan-20 09:00S 63°54' E 000°00'0 0.0 030 / 16968.7 5.4 1.5-0.2-1.9 0.3
2015-Jan-20 08:00S 63°54' E 000°00'0 0.0 020 / 17968.9 -0.2-2.3 0.2
2015-Jan-20 07:00S 63°54' E 000°00'0 0.0 020 / 17968.6 -0.1-2.7 0.2
2015-Jan-20 06:00S 63°54' E 000°00'6 6.0 020 / 19968.7 5.4 1.5-0.4-3.1 0.2
2015-Jan-20 05:00S 64°00' E 000°00'6 6.0 010 / 19968.4 -0.3-2.7 0.4
2015-Jan-20 04:00S 64°06' E 000°00'6 6.0 030 / 21968.9 0.3-2.8 0.5
2015-Jan-20 03:00S 64°12' E 000°00'6 6.0 030 / 23969.6 0.4-3.3 0.4
2015-Jan-20 02:00S 64°18' E 000°00'6 6.0 030 / 21970.0 0.3-2.6 0.2
2015-Jan-20 01:00S 64°24' E 000°00'6 6.0 030 / 23970.0 0.2-1.5 0.4
2015-Jan-20 00:00S 64°30' E 000°00'6 6.0 030 / 23970.7 0.2-1.5 0.1
2015-Jan-19 23:00S 64°36' E 000°00'6 6.0 030 / 23971.3 0.2-1.3 0.4
2015-Jan-19 22:00S 64°42' E 000°00'1212.0 030 / 25971.8 0.2-1.2 0.4
2015-Jan-19 21:00S 64°54' E 000°00'6 6.0 020 / 23972.1 0.4-1.6 0.6
2015-Jan-19 20:00S 65°00' E 000°00'6 6.0 020 / 23972.3 0.4-1.0 0.2
2015-Jan-19 19:00S 65°06' E 000°00'6 6.0 020 / 23972.2 0.5-1.0 0.6
2015-Jan-19 18:00S 65°12' E 000°00'6 6.0 020 / 23972.6 2.2 2.0 0.5-0.7 0.5
2015-Jan-19 17:00S 65°18' E 000°00'1212.0 010 / 23972.9 0.6-1.0 0.6
2015-Jan-19 16:00S 65°30' E 000°00'6 6.0 010 / 23973.4 0.7-0.9 0.4
2015-Jan-19 15:00S 65°36' E 000°00'6 6.0 010 / 25973.3 2.2 2.0 0.2-1.0 0.5
2015-Jan-19 14:00S 65°42' E 000°00'6 6.5 010 / 25973.8 0.7-1.1 0.4
2015-Jan-19 13:00S 65°48' E 000°06'0 0.0 010 / 23974.6 0.6-0.6 0.5
2015-Jan-19 12:00S 65°48' E 000°06'2 2.5 010 / 23974.3 2.2 2.0 0.6-0.9 0.3
2015-Jan-19 11:00S 65°48' E 000°00'6 6.0 020 / 25974.2 0.7-0.7 0.6
2015-Jan-19 10:00S 65°54' E 000°00'0 0.0 020 / 23973.9 0.7-0.6 0.3
2015-Jan-19 09:00S 65°54' E 000°00'6 6.0 010 / 23974.0 2.2 2.0 0.6-0.7 0.2
2015-Jan-19 08:00S 66°00' E 000°00'0 0.0 020 / 23973.6 0.2-0.1 0.1
2015-Jan-19 07:00S 66°00' E 000°00'0 0.0 020 / 23974.0 0.5-0.6 0.2
2015-Jan-19 06:00S 66°00' E 000°00'0 0.0 020 / 25973.4 2.2 2.0 0.5-0.6-0.1
2015-Jan-19 05:00S 66°00' E 000°00'6 6.0 020 / 23973.4 0.5-0.6-0.0
2015-Jan-19 04:00S 66°06' E 000°00'0 0.0 020 / 27972.6 0.4-0.0-0.0
2015-Jan-19 03:00S 66°06' E 000°00'6 6.0 020 / 27973.0 0.4-0.1-0.1
2015-Jan-19 02:00S 66°12' E 000°00'6 6.0 020 / 27973.2 0.2 0.2-0.2
2015-Jan-19 01:00S 66°18' E 000°00'12 6.0 020 / 27973.5 0.3-0.2-0.2
2015-Jan-18 23:00S 66°30' E 000°00'0 0.0 020 / 23973.1 0.2-0.1-0.1
2015-Jan-18 22:00S 66°30' E 000°00'6 6.0 010 / 21973.6 0.3-0.2 0.1
2015-Jan-18 21:00S 66°36' E 000°00'6 6.5 010 / 19972.5 0.3-0.4 0.1
2015-Jan-18 20:00S 66°42' E 000°06'6 6.5 360 / 17972.5 0.3-0.2 0.1
2015-Jan-18 19:00S 66°48' E 000°12'0 0.0 030 / 23971.4 0.1-0.2-0.0
2015-Jan-18 18:00S 66°48' E 000°12'6 6.4 040 / 31971.3 0.5 4.5-0.4-0.5-0.0
2015-Jan-18 17:00S 66°54' E 000°06'0 0.0 050 / 39971.9 -0.6-1.0-0.0
2015-Jan-18 16:00S 66°54' E 000°06'2 2.4 050 / 41972.2 -0.9-1.2-0.2
2015-Jan-18 15:00S 66°54' E 000°00'6 6.0 060 / 41973.6 0.5 5.0-1.1-1.6-0.6
2015-Jan-18 14:00S 67°00' E 000°00'8 7.6 060 / 39975.1 -1.1-2.0-0.5
2015-Jan-18 13:00S 67°06' W 000°12'5 4.7 060 / 43977.0 -1.1-1.8-0.3
2015-Jan-18 12:00S 67°06' W 000°24'8 7.6 060 / 39978.5 1.1 3.5-1.1-2.2-0.2
2015-Jan-18 11:00S 67°12' W 000°36'9 9.2 050 / 37980.2 -0.8-2.3-0.1
2015-Jan-18 10:00S 67°18' W 000°54'8 7.6 060 / 35982.0 -0.5-3.2-0.2
2015-Jan-18 09:00S 67°24' W 001°06'8 7.6 060 / 33983.110.8 1.5-0.5-3.9-0.1
2015-Jan-18 08:00S 67°30' W 001°18'9 9.1 050 / 27984.4 -0.8-4.9-0.5
2015-Jan-18 07:00S 67°36' W 001°36'8 7.5 040 / 25985.1 -0.9-5.5-0.8
2015-Jan-18 06:00S 67°42' W 001°48'0 0.0 060 / 17986.010.8 0.5-1.3-4.9-0.7
2015-Jan-18 05:00S 67°42' W 001°48'0 0.0 060 / 14986.5 -1.3-5.5-0.6
2015-Jan-18 04:00S 67°42' W 001°48'0 0.0 030 / 10987.3 -1.6-6.1-0.7
2015-Jan-18 03:00S 67°42' W 001°48'5 4.6 340 / 6987.5 -1.5-5.3-0.8
2015-Jan-18 02:00S 67°42' W 002°00'9 9.1 310 / 12987.6 -1.8-6.8-1.1
2015-Jan-18 01:00S 67°48' W 002°18'9 9.1 300 / 16987.1 -1.6-6.0-1.6
2015-Jan-18 00:00S 67°48' W 002°42'9 9.1 290 / 14986.7 -1.4-4.7-1.4
2015-Jan-17 23:00S 67°54' W 003°00'9 9.0 280 / 17986.3 -1.5-5.4-1.4
2015-Jan-17 22:00S 68°00' W 003°18'7 7.5 270 / 17985.5 -1.5-5.2-1.5
2015-Jan-17 21:00S 68°06' W 003°30'9 9.0 270 / 21985.010.8 1.5-1.5-4.6-1.4
2015-Jan-17 20:00S 68°12' W 003°48'0 0.0 270 / 21983.8 -1.7-4.5-1.4
2015-Jan-17 19:00S 68°12' W 003°48'0 0.0 270 / 21983.3 -1.7-4.5-1.4
2015-Jan-17 18:00S 68°12' W 003°48'2 2.2 270 / 23982.710.8 -1.8-4.7-1.4
2015-Jan-17 17:00S 68°12' W 003°42'0 0.0 260 / 25982.2 -1.8-5.1-1.5
2015-Jan-17 16:00S 68°12' W 003°42'9 9.0 260 / 27982.0 -1.7-5.4-1.5
2015-Jan-17 15:00S 68°18' W 004°00'2 2.2 260 / 27981.110.8 2.0-1.9-4.6-1.3
2015-Jan-17 14:00S 68°18' W 003°54'4 4.4 260 / 29980.4 -2.0-4.9-1.2
2015-Jan-17 13:00S 68°18' W 004°06'2 2.2 250 / 31980.6 -2.0-4.3-1.0
2015-Jan-17 12:00S 68°18' W 004°00'6 6.4 250 / 33979.9 5.4 2.0-2.1-4.5-1.0
2015-Jan-17 11:00S 68°12' W 003°54'7 7.5 250 / 29979.9 -1.7-3.7-1.1
2015-Jan-17 10:00S 68°18' W 004°06'6 6.4 250 / 21980.3 -1.9-4.7-1.2
2015-Jan-17 09:00S 68°24' W 004°00'4 2.2 240 / 23981.010.8 -2.3-5.3-1.4
2015-Jan-17 07:00S 68°24' W 004°12'7 6.6 250 / 21983.1 -2.9-5.8-1.4
2015-Jan-17 06:00S 68°24' W 004°30'7 7.4 240 / 19984.627.0 -1.0-5.2-1.4
2015-Jan-17 05:00S 68°30' W 004°42'6 6.4 230 / 19985.8 -3.4-5.2-1.3
2015-Jan-17 04:00S 68°36' W 004°48'9 8.9 220 / 17986.9 -3.3-5.4-1.4
2015-Jan-17 03:00S 68°42' W 005°06'7 7.4 220 / 19987.8 -3.8-6.0-1.3
2015-Jan-17 02:00S 68°48' W 005°18'9 8.8 220 / 14989.5 -4.2-5.2-1.6
2015-Jan-17 01:00S 68°54' W 005°36'6 6.4 220 / 12990.8 -4.7-6.2-1.4
2015-Jan-17 00:00S 69°00' W 005°42'6 6.5 220 / 10992.1 -4.4-6.3-1.7
2015-Jan-16 23:00S 69°00' W 006°00'   210 / 16993.1 -4.2-5.7-1.2

Dump ship's entire track history